sensor_id;sensor_type;location;lat;lon;timestamp;P1;durP1;ratioP1;P2;durP2;ratioP2
10801;SDS011;5453;50.852;7.102;2022-07-29T00:01:04;1.58;;;0.70;;
10801;SDS011;5453;50.852;7.102;2022-07-29T00:03:36;1.08;;;0.85;;
10801;SDS011;5453;50.852;7.102;2022-07-29T00:06:08;1.10;;;0.80;;
10801;SDS011;5453;50.852;7.102;2022-07-29T00:08:42;1.10;;;0.80;;
10801;SDS011;5453;50.852;7.102;2022-07-29T00:11:14;1.17;;;0.80;;
10801;SDS011;5453;50.852;7.102;2022-07-29T00:13:46;1.08;;;0.80;;
10801;SDS011;5453;50.852;7.102;2022-07-29T00:16:18;0.95;;;0.80;;
10801;SDS011;5453;50.852;7.102;2022-07-29T00:18:51;2.47;;;1.00;;
10801;SDS011;5453;50.852;7.102;2022-07-29T00:21:23;1.05;;;0.95;;
10801;SDS011;5453;50.852;7.102;2022-07-29T00:23:56;1.75;;;1.02;;
10801;SDS011;5453;50.852;7.102;2022-07-29T00:26:28;2.45;;;0.90;;
10801;SDS011;5453;50.852;7.102;2022-07-29T00:29:02;1.85;;;1.00;;
10801;SDS011;5453;50.852;7.102;2022-07-29T00:31:35;2.05;;;0.90;;
10801;SDS011;5453;50.852;7.102;2022-07-29T00:34:07;1.27;;;0.88;;
10801;SDS011;5453;50.852;7.102;2022-07-29T00:36:59;1.67;;;0.90;;
10801;SDS011;5453;50.852;7.102;2022-07-29T00:39:32;2.83;;;1.30;;
10801;SDS011;5453;50.852;7.102;2022-07-29T00:42:04;1.23;;;0.90;;
10801;SDS011;5453;50.852;7.102;2022-07-29T00:44:38;1.23;;;0.90;;
10801;SDS011;5453;50.852;7.102;2022-07-29T00:47:11;1.67;;;1.55;;
10801;SDS011;5453;50.852;7.102;2022-07-29T00:49:44;2.00;;;1.00;;
10801;SDS011;5453;50.852;7.102;2022-07-29T00:52:16;1.63;;;0.93;;
10801;SDS011;5453;50.852;7.102;2022-07-29T00:54:49;1.42;;;0.82;;
10801;SDS011;5453;50.852;7.102;2022-07-29T00:57:22;1.02;;;0.90;;
10801;SDS011;5453;50.852;7.102;2022-07-29T00:59:54;2.22;;;1.10;;
10801;SDS011;5453;50.852;7.102;2022-07-29T01:02:27;2.35;;;1.20;;
10801;SDS011;5453;50.852;7.102;2022-07-29T01:04:59;1.52;;;0.70;;
10801;SDS011;5453;50.852;7.102;2022-07-29T01:07:31;1.60;;;0.80;;
10801;SDS011;5453;50.852;7.102;2022-07-29T01:10:08;1.98;;;0.90;;
10801;SDS011;5453;50.852;7.102;2022-07-29T01:12:43;1.40;;;0.90;;
10801;SDS011;5453;50.852;7.102;2022-07-29T01:15:18;1.10;;;0.90;;
10801;SDS011;5453;50.852;7.102;2022-07-29T01:17:52;0.88;;;0.73;;
10801;SDS011;5453;50.852;7.102;2022-07-29T01:20:35;2.13;;;1.00;;
10801;SDS011;5453;50.852;7.102;2022-07-29T01:23:35;1.38;;;1.20;;
10801;SDS011;5453;50.852;7.102;2022-07-29T01:26:45;2.00;;;0.90;;
10801;SDS011;5453;50.852;7.102;2022-07-29T01:29:25;1.55;;;0.85;;
10801;SDS011;5453;50.852;7.102;2022-07-29T01:32:01;1.77;;;1.13;;
10801;SDS011;5453;50.852;7.102;2022-07-29T01:34:39;1.17;;;1.08;;
10801;SDS011;5453;50.852;7.102;2022-07-29T01:37:18;1.02;;;0.93;;
10801;SDS011;5453;50.852;7.102;2022-07-29T01:39:54;1.00;;;0.82;;
10801;SDS011;5453;50.852;7.102;2022-07-29T01:42:30;0.98;;;0.70;;
10801;SDS011;5453;50.852;7.102;2022-07-29T01:45:10;1.00;;;0.85;;
10801;SDS011;5453;50.852;7.102;2022-07-29T01:47:49;0.73;;;0.65;;
10801;SDS011;5453;50.852;7.102;2022-07-29T01:50:33;1.10;;;0.80;;
10801;SDS011;5453;50.852;7.102;2022-07-29T01:53:09;0.70;;;0.70;;
10801;SDS011;5453;50.852;7.102;2022-07-29T01:55:44;1.30;;;0.93;;
10801;SDS011;5453;50.852;7.102;2022-07-29T01:58:17;2.05;;;1.15;;
10801;SDS011;5453;50.852;7.102;2022-07-29T02:00:53;1.88;;;1.25;;
10801;SDS011;5453;50.852;7.102;2022-07-29T02:03:28;1.52;;;1.00;;
10801;SDS011;5453;50.852;7.102;2022-07-29T02:06:03;1.20;;;0.95;;
10801;SDS011;5453;50.852;7.102;2022-07-29T02:08:37;1.15;;;0.93;;
10801;SDS011;5453;50.852;7.102;2022-07-29T02:11:10;1.48;;;1.00;;
10801;SDS011;5453;50.852;7.102;2022-07-29T02:13:43;1.63;;;1.40;;
10801;SDS011;5453;50.852;7.102;2022-07-29T02:16:18;1.52;;;0.90;;
10801;SDS011;5453;50.852;7.102;2022-07-29T02:18:54;1.45;;;1.05;;
10801;SDS011;5453;50.852;7.102;2022-07-29T02:21:29;1.85;;;0.90;;
10801;SDS011;5453;50.852;7.102;2022-07-29T02:24:03;0.80;;;0.80;;
10801;SDS011;5453;50.852;7.102;2022-07-29T02:26:37;1.88;;;1.08;;
10801;SDS011;5453;50.852;7.102;2022-07-29T02:29:11;1.10;;;1.00;;
10801;SDS011;5453;50.852;7.102;2022-07-29T02:31:48;1.58;;;1.10;;
10801;SDS011;5453;50.852;7.102;2022-07-29T02:34:22;1.83;;;1.13;;
10801;SDS011;5453;50.852;7.102;2022-07-29T02:36:55;1.30;;;0.98;;
10801;SDS011;5453;50.852;7.102;2022-07-29T02:39:28;1.15;;;0.90;;
10801;SDS011;5453;50.852;7.102;2022-07-29T02:42:02;1.00;;;0.90;;
10801;SDS011;5453;50.852;7.102;2022-07-29T02:44:39;2.42;;;1.20;;
10801;SDS011;5453;50.852;7.102;2022-07-29T02:47:15;1.30;;;1.13;;
10801;SDS011;5453;50.852;7.102;2022-07-29T02:49:53;1.10;;;1.00;;
10801;SDS011;5453;50.852;7.102;2022-07-29T02:52:31;1.20;;;1.10;;
10801;SDS011;5453;50.852;7.102;2022-07-29T02:55:14;2.40;;;1.10;;
10801;SDS011;5453;50.852;7.102;2022-07-29T02:57:51;4.47;;;1.20;;
10801;SDS011;5453;50.852;7.102;2022-07-29T03:00:31;2.78;;;1.10;;
10801;SDS011;5453;50.852;7.102;2022-07-29T03:03:11;1.77;;;0.90;;
10801;SDS011;5453;50.852;7.102;2022-07-29T03:05:46;2.00;;;1.20;;
10801;SDS011;5453;50.852;7.102;2022-07-29T03:08:19;1.85;;;1.10;;
10801;SDS011;5453;50.852;7.102;2022-07-29T03:10:51;1.55;;;1.02;;
10801;SDS011;5453;50.852;7.102;2022-07-29T03:13:24;1.52;;;1.10;;
10801;SDS011;5453;50.852;7.102;2022-07-29T03:15:57;2.85;;;1.15;;
10801;SDS011;5453;50.852;7.102;2022-07-29T03:18:32;3.63;;;1.27;;
10801;SDS011;5453;50.852;7.102;2022-07-29T03:21:05;1.55;;;1.40;;
10801;SDS011;5453;50.852;7.102;2022-07-29T03:23:38;2.45;;;1.20;;
10801;SDS011;5453;50.852;7.102;2022-07-29T03:26:16;1.40;;;1.13;;
10801;SDS011;5453;50.852;7.102;2022-07-29T03:28:48;1.83;;;1.17;;
10801;SDS011;5453;50.852;7.102;2022-07-29T03:31:20;1.92;;;1.13;;
10801;SDS011;5453;50.852;7.102;2022-07-29T03:33:54;1.80;;;1.10;;
10801;SDS011;5453;50.852;7.102;2022-07-29T03:36:26;2.58;;;1.17;;
10801;SDS011;5453;50.852;7.102;2022-07-29T03:38:58;2.05;;;1.48;;
10801;SDS011;5453;50.852;7.102;2022-07-29T03:41:32;1.42;;;1.20;;
10801;SDS011;5453;50.852;7.102;2022-07-29T03:44:05;1.38;;;1.25;;
10801;SDS011;5453;50.852;7.102;2022-07-29T03:46:39;2.50;;;1.30;;
10801;SDS011;5453;50.852;7.102;2022-07-29T03:49:14;1.83;;;1.20;;
10801;SDS011;5453;50.852;7.102;2022-07-29T03:51:48;2.72;;;1.40;;
10801;SDS011;5453;50.852;7.102;2022-07-29T03:54:20;2.22;;;1.23;;
10801;SDS011;5453;50.852;7.102;2022-07-29T03:56:53;1.17;;;1.05;;
10801;SDS011;5453;50.852;7.102;2022-07-29T03:59:29;2.80;;;1.25;;
10801;SDS011;5453;50.852;7.102;2022-07-29T04:02:04;1.77;;;1.33;;
10801;SDS011;5453;50.852;7.102;2022-07-29T04:04:41;3.03;;;1.27;;
10801;SDS011;5453;50.852;7.102;2022-07-29T04:07:14;2.08;;;1.20;;
10801;SDS011;5453;50.852;7.102;2022-07-29T04:09:46;3.20;;;1.45;;
10801;SDS011;5453;50.852;7.102;2022-07-29T04:12:19;1.70;;;1.30;;
10801;SDS011;5453;50.852;7.102;2022-07-29T04:14:52;1.30;;;1.20;;
10801;SDS011;5453;50.852;7.102;2022-07-29T04:17:24;1.52;;;1.27;;
10801;SDS011;5453;50.852;7.102;2022-07-29T04:19:57;2.13;;;1.13;;
10801;SDS011;5453;50.852;7.102;2022-07-29T04:22:30;1.48;;;1.23;;
10801;SDS011;5453;50.852;7.102;2022-07-29T04:25:02;4.35;;;1.33;;
10801;SDS011;5453;50.852;7.102;2022-07-29T04:27:35;1.38;;;1.10;;
10801;SDS011;5453;50.852;7.102;2022-07-29T04:30:27;1.98;;;1.30;;
10801;SDS011;5453;50.852;7.102;2022-07-29T04:33:00;3.72;;;1.60;;
10801;SDS011;5453;50.852;7.102;2022-07-29T04:35:36;3.13;;;1.30;;
10801;SDS011;5453;50.852;7.102;2022-07-29T04:38:09;2.45;;;1.65;;
10801;SDS011;5453;50.852;7.102;2022-07-29T04:40:41;2.20;;;1.30;;
10801;SDS011;5453;50.852;7.102;2022-07-29T04:43:14;1.60;;;1.23;;
10801;SDS011;5453;50.852;7.102;2022-07-29T04:45:46;1.73;;;1.10;;
10801;SDS011;5453;50.852;7.102;2022-07-29T04:48:19;4.00;;;1.50;;
10801;SDS011;5453;50.852;7.102;2022-07-29T04:50:52;3.03;;;1.42;;
10801;SDS011;5453;50.852;7.102;2022-07-29T04:53:24;2.67;;;1.30;;
10801;SDS011;5453;50.852;7.102;2022-07-29T04:55:57;3.20;;;1.42;;
10801;SDS011;5453;50.852;7.102;2022-07-29T04:58:29;1.95;;;1.02;;
10801;SDS011;5453;50.852;7.102;2022-07-29T05:01:02;2.13;;;1.20;;
10801;SDS011;5453;50.852;7.102;2022-07-29T05:03:34;3.22;;;1.40;;
10801;SDS011;5453;50.852;7.102;2022-07-29T05:06:08;3.20;;;1.52;;
10801;SDS011;5453;50.852;7.102;2022-07-29T05:08:40;4.38;;;1.40;;
10801;SDS011;5453;50.852;7.102;2022-07-29T05:11:12;5.50;;;1.60;;
10801;SDS011;5453;50.852;7.102;2022-07-29T05:13:44;3.78;;;1.30;;
10801;SDS011;5453;50.852;7.102;2022-07-29T05:16:16;5.38;;;1.40;;
10801;SDS011;5453;50.852;7.102;2022-07-29T05:18:49;1.92;;;1.33;;
10801;SDS011;5453;50.852;7.102;2022-07-29T05:21:22;3.10;;;1.30;;
10801;SDS011;5453;50.852;7.102;2022-07-29T05:23:54;1.30;;;1.20;;
10801;SDS011;5453;50.852;7.102;2022-07-29T05:26:29;3.33;;;1.50;;
10801;SDS011;5453;50.852;7.102;2022-07-29T05:29:01;2.35;;;1.50;;
10801;SDS011;5453;50.852;7.102;2022-07-29T05:31:33;1.75;;;1.10;;
10801;SDS011;5453;50.852;7.102;2022-07-29T05:34:05;1.77;;;1.20;;
10801;SDS011;5453;50.852;7.102;2022-07-29T05:36:39;2.20;;;1.58;;
10801;SDS011;5453;50.852;7.102;2022-07-29T05:39:11;2.60;;;1.25;;
10801;SDS011;5453;50.852;7.102;2022-07-29T05:41:44;2.13;;;1.25;;
10801;SDS011;5453;50.852;7.102;2022-07-29T05:44:16;2.95;;;1.60;;
10801;SDS011;5453;50.852;7.102;2022-07-29T05:46:48;4.22;;;1.30;;
10801;SDS011;5453;50.852;7.102;2022-07-29T05:49:20;3.30;;;1.88;;
10801;SDS011;5453;50.852;7.102;2022-07-29T05:51:54;3.90;;;1.60;;
10801;SDS011;5453;50.852;7.102;2022-07-29T05:54:26;3.85;;;1.38;;
10801;SDS011;5453;50.852;7.102;2022-07-29T05:56:58;4.57;;;1.55;;
10801;SDS011;5453;50.852;7.102;2022-07-29T05:59:30;3.45;;;1.50;;
10801;SDS011;5453;50.852;7.102;2022-07-29T06:02:06;2.67;;;1.20;;
10801;SDS011;5453;50.852;7.102;2022-07-29T06:04:38;3.28;;;1.33;;
10801;SDS011;5453;50.852;7.102;2022-07-29T06:07:12;3.78;;;1.38;;
10801;SDS011;5453;50.852;7.102;2022-07-29T06:09:44;5.20;;;1.25;;
10801;SDS011;5453;50.852;7.102;2022-07-29T06:12:16;3.20;;;1.30;;
10801;SDS011;5453;50.852;7.102;2022-07-29T06:14:49;3.35;;;1.77;;
10801;SDS011;5453;50.852;7.102;2022-07-29T06:17:21;2.40;;;1.40;;
10801;SDS011;5453;50.852;7.102;2022-07-29T06:19:54;2.40;;;1.40;;
10801;SDS011;5453;50.852;7.102;2022-07-29T06:22:27;4.25;;;1.30;;
10801;SDS011;5453;50.852;7.102;2022-07-29T06:25:00;1.80;;;1.10;;
10801;SDS011;5453;50.852;7.102;2022-07-29T06:27:33;3.97;;;1.33;;
10801;SDS011;5453;50.852;7.102;2022-07-29T06:30:06;2.58;;;1.35;;
10801;SDS011;5453;50.852;7.102;2022-07-29T06:32:40;2.00;;;1.30;;
10801;SDS011;5453;50.852;7.102;2022-07-29T06:35:12;3.50;;;1.50;;
10801;SDS011;5453;50.852;7.102;2022-07-29T06:37:45;3.47;;;1.27;;
10801;SDS011;5453;50.852;7.102;2022-07-29T06:40:18;4.13;;;1.50;;
10801;SDS011;5453;50.852;7.102;2022-07-29T06:43:07;2.70;;;1.33;;
10801;SDS011;5453;50.852;7.102;2022-07-29T06:45:40;3.65;;;1.42;;
10801;SDS011;5453;50.852;7.102;2022-07-29T06:48:12;3.25;;;1.60;;
10801;SDS011;5453;50.852;7.102;2022-07-29T06:50:45;4.25;;;1.58;;
10801;SDS011;5453;50.852;7.102;2022-07-29T06:53:18;2.75;;;1.50;;
10801;SDS011;5453;50.852;7.102;2022-07-29T06:55:50;9.90;;;1.63;;
10801;SDS011;5453;50.852;7.102;2022-07-29T06:58:22;2.42;;;1.48;;
10801;SDS011;5453;50.852;7.102;2022-07-29T07:01:02;4.90;;;1.65;;
10801;SDS011;5453;50.852;7.102;2022-07-29T07:03:36;2.15;;;1.40;;
10801;SDS011;5453;50.852;7.102;2022-07-29T07:06:08;3.22;;;1.13;;
10801;SDS011;5453;50.852;7.102;2022-07-29T07:08:42;2.60;;;1.38;;
10801;SDS011;5453;50.852;7.102;2022-07-29T07:11:14;2.05;;;1.10;;
10801;SDS011;5453;50.852;7.102;2022-07-29T07:13:46;3.78;;;1.45;;
10801;SDS011;5453;50.852;7.102;2022-07-29T07:16:18;1.35;;;1.00;;
10801;SDS011;5453;50.852;7.102;2022-07-29T07:18:50;3.35;;;1.27;;
10801;SDS011;5453;50.852;7.102;2022-07-29T07:21:22;2.53;;;1.02;;
10801;SDS011;5453;50.852;7.102;2022-07-29T07:23:56;1.83;;;1.27;;
10801;SDS011;5453;50.852;7.102;2022-07-29T07:26:28;2.05;;;1.48;;
10801;SDS011;5453;50.852;7.102;2022-07-29T07:29:01;0.95;;;0.95;;
10801;SDS011;5453;50.852;7.102;2022-07-29T07:31:33;3.55;;;1.30;;
10801;SDS011;5453;50.852;7.102;2022-07-29T07:34:05;2.50;;;0.90;;
10801;SDS011;5453;50.852;7.102;2022-07-29T07:36:37;4.03;;;1.17;;
10801;SDS011;5453;50.852;7.102;2022-07-29T07:39:11;2.33;;;1.13;;
10801;SDS011;5453;50.852;7.102;2022-07-29T07:41:43;1.83;;;1.08;;
10801;SDS011;5453;50.852;7.102;2022-07-29T07:44:15;2.03;;;1.20;;
10801;SDS011;5453;50.852;7.102;2022-07-29T07:46:47;2.70;;;1.00;;
10801;SDS011;5453;50.852;7.102;2022-07-29T07:49:20;1.00;;;0.90;;
10801;SDS011;5453;50.852;7.102;2022-07-29T07:51:52;1.73;;;1.17;;
10801;SDS011;5453;50.852;7.102;2022-07-29T07:54:25;1.65;;;0.90;;
10801;SDS011;5453;50.852;7.102;2022-07-29T07:56:58;2.35;;;1.20;;
10801;SDS011;5453;50.852;7.102;2022-07-29T07:59:30;3.83;;;1.25;;
10801;SDS011;5453;50.852;7.102;2022-07-29T08:02:02;3.95;;;1.20;;
10801;SDS011;5453;50.852;7.102;2022-07-29T08:04:35;2.35;;;1.50;;
10801;SDS011;5453;50.852;7.102;2022-07-29T08:07:10;4.78;;;1.40;;
10801;SDS011;5453;50.852;7.102;2022-07-29T08:09:45;1.90;;;1.33;;
10801;SDS011;5453;50.852;7.102;2022-07-29T08:12:17;1.80;;;1.00;;
10801;SDS011;5453;50.852;7.102;2022-07-29T08:14:50;3.50;;;1.33;;
10801;SDS011;5453;50.852;7.102;2022-07-29T08:17:22;2.00;;;1.20;;
10801;SDS011;5453;50.852;7.102;2022-07-29T08:19:54;3.00;;;1.23;;
10801;SDS011;5453;50.852;7.102;2022-07-29T08:22:26;3.08;;;1.25;;
10801;SDS011;5453;50.852;7.102;2022-07-29T08:25:00;2.55;;;1.02;;
10801;SDS011;5453;50.852;7.102;2022-07-29T08:27:32;2.05;;;1.30;;
10801;SDS011;5453;50.852;7.102;2022-07-29T08:30:05;3.03;;;1.90;;
10801;SDS011;5453;50.852;7.102;2022-07-29T08:32:42;2.35;;;1.40;;
10801;SDS011;5453;50.852;7.102;2022-07-29T08:35:14;3.65;;;1.15;;
10801;SDS011;5453;50.852;7.102;2022-07-29T08:37:46;3.10;;;1.30;;
10801;SDS011;5453;50.852;7.102;2022-07-29T08:40:20;4.63;;;1.33;;
10801;SDS011;5453;50.852;7.102;2022-07-29T08:42:53;4.28;;;1.65;;
10801;SDS011;5453;50.852;7.102;2022-07-29T08:45:25;2.20;;;1.13;;
10801;SDS011;5453;50.852;7.102;2022-07-29T08:47:59;2.80;;;1.55;;
10801;SDS011;5453;50.852;7.102;2022-07-29T08:50:31;5.05;;;1.40;;
10801;SDS011;5453;50.852;7.102;2022-07-29T08:53:06;3.42;;;1.40;;
10801;SDS011;5453;50.852;7.102;2022-07-29T08:55:44;2.67;;;1.50;;
10801;SDS011;5453;50.852;7.102;2022-07-29T08:58:19;3.75;;;1.30;;
10801;SDS011;5453;50.852;7.102;2022-07-29T09:00:53;3.47;;;1.40;;
10801;SDS011;5453;50.852;7.102;2022-07-29T09:03:31;2.28;;;1.00;;
10801;SDS011;5453;50.852;7.102;2022-07-29T09:06:05;3.45;;;1.30;;
10801;SDS011;5453;50.852;7.102;2022-07-29T09:08:38;4.07;;;1.40;;
10801;SDS011;5453;50.852;7.102;2022-07-29T09:11:12;4.55;;;1.23;;
10801;SDS011;5453;50.852;7.102;2022-07-29T09:13:45;3.38;;;1.50;;
10801;SDS011;5453;50.852;7.102;2022-07-29T09:16:17;3.88;;;1.40;;
10801;SDS011;5453;50.852;7.102;2022-07-29T09:18:52;2.25;;;1.40;;
10801;SDS011;5453;50.852;7.102;2022-07-29T09:21:25;2.90;;;1.20;;
10801;SDS011;5453;50.852;7.102;2022-07-29T09:24:37;2.65;;;1.27;;
10801;SDS011;5453;50.852;7.102;2022-07-29T09:27:20;4.20;;;1.63;;
10801;SDS011;5453;50.852;7.102;2022-07-29T09:29:57;4.18;;;1.70;;
10801;SDS011;5453;50.852;7.102;2022-07-29T09:32:30;17.15;;;7.85;;
10801;SDS011;5453;50.852;7.102;2022-07-29T09:35:19;16.92;;;7.57;;
10801;SDS011;5453;50.852;7.102;2022-07-29T09:37:53;10.38;;;5.00;;
10801;SDS011;5453;50.852;7.102;2022-07-29T09:40:27;5.07;;;2.35;;
10801;SDS011;5453;50.852;7.102;2022-07-29T09:43:01;5.93;;;2.13;;
10801;SDS011;5453;50.852;7.102;2022-07-29T09:45:42;5.05;;;1.70;;
10801;SDS011;5453;50.852;7.102;2022-07-29T09:48:15;2.47;;;1.30;;
10801;SDS011;5453;50.852;7.102;2022-07-29T09:50:49;4.03;;;1.40;;
10801;SDS011;5453;50.852;7.102;2022-07-29T09:53:31;3.47;;;1.60;;
10801;SDS011;5453;50.852;7.102;2022-07-29T09:56:05;3.60;;;1.38;;
10801;SDS011;5453;50.852;7.102;2022-07-29T09:58:39;2.60;;;1.13;;
10801;SDS011;5453;50.852;7.102;2022-07-29T10:01:11;3.08;;;1.65;;
10801;SDS011;5453;50.852;7.102;2022-07-29T10:03:51;3.63;;;1.50;;
10801;SDS011;5453;50.852;7.102;2022-07-29T10:06:24;3.13;;;1.50;;
10801;SDS011;5453;50.852;7.102;2022-07-29T10:09:06;2.30;;;1.38;;
10801;SDS011;5453;50.852;7.102;2022-07-29T10:11:39;2.72;;;1.23;;
10801;SDS011;5453;50.852;7.102;2022-07-29T10:14:13;3.83;;;1.48;;
10801;SDS011;5453;50.852;7.102;2022-07-29T10:16:46;5.05;;;1.65;;
10801;SDS011;5453;50.852;7.102;2022-07-29T10:19:18;5.60;;;1.83;;
10801;SDS011;5453;50.852;7.102;2022-07-29T10:21:51;2.75;;;1.42;;
10801;SDS011;5453;50.852;7.102;2022-07-29T10:24:24;2.75;;;1.30;;
10801;SDS011;5453;50.852;7.102;2022-07-29T10:29:34;6.38;;;2.13;;
10801;SDS011;5453;50.852;7.102;2022-07-29T10:32:08;5.97;;;1.65;;
10801;SDS011;5453;50.852;7.102;2022-07-29T10:35:12;5.28;;;1.70;;
10801;SDS011;5453;50.852;7.102;2022-07-29T10:38:02;3.17;;;1.30;;
10801;SDS011;5453;50.852;7.102;2022-07-29T10:40:49;3.25;;;1.88;;
10801;SDS011;5453;50.852;7.102;2022-07-29T10:43:49;3.35;;;1.67;;
10801;SDS011;5453;50.852;7.102;2022-07-29T10:46:24;4.45;;;1.95;;
10801;SDS011;5453;50.852;7.102;2022-07-29T10:49:08;4.40;;;1.30;;
10801;SDS011;5453;50.852;7.102;2022-07-29T10:51:53;4.43;;;1.55;;
10801;SDS011;5453;50.852;7.102;2022-07-29T10:54:43;2.42;;;1.60;;
10801;SDS011;5453;50.852;7.102;2022-07-29T10:57:21;5.32;;;1.90;;
10801;SDS011;5453;50.852;7.102;2022-07-29T11:03:05;4.18;;;1.58;;
10801;SDS011;5453;50.852;7.102;2022-07-29T11:05:55;3.25;;;1.52;;
10801;SDS011;5453;50.852;7.102;2022-07-29T11:08:28;3.03;;;1.80;;
10801;SDS011;5453;50.852;7.102;2022-07-29T11:14:10;3.22;;;1.80;;
10801;SDS011;5453;50.852;7.102;2022-07-29T11:19:40;5.15;;;1.45;;
10801;SDS011;5453;50.852;7.102;2022-07-29T11:22:30;3.38;;;1.40;;
10801;SDS011;5453;50.852;7.102;2022-07-29T11:25:13;6.13;;;2.45;;
10801;SDS011;5453;50.852;7.102;2022-07-29T11:27:46;13.55;;;7.03;;
10801;SDS011;5453;50.852;7.102;2022-07-29T11:30:19;12.30;;;5.40;;
10801;SDS011;5453;50.852;7.102;2022-07-29T11:32:51;8.52;;;4.32;;
10801;SDS011;5453;50.852;7.102;2022-07-29T11:35:25;6.15;;;2.72;;
10801;SDS011;5453;50.852;7.102;2022-07-29T11:43:55;3.67;;;1.60;;
10801;SDS011;5453;50.852;7.102;2022-07-29T11:46:42;3.00;;;1.30;;
10801;SDS011;5453;50.852;7.102;2022-07-29T11:49:19;4.63;;;1.75;;
10801;SDS011;5453;50.852;7.102;2022-07-29T11:51:56;1.98;;;1.48;;
10801;SDS011;5453;50.852;7.102;2022-07-29T11:54:31;2.53;;;1.50;;
10801;SDS011;5453;50.852;7.102;2022-07-29T11:57:06;2.95;;;1.60;;
10801;SDS011;5453;50.852;7.102;2022-07-29T11:59:39;3.55;;;1.65;;
10801;SDS011;5453;50.852;7.102;2022-07-29T12:02:12;2.67;;;1.45;;
10801;SDS011;5453;50.852;7.102;2022-07-29T12:04:49;8.30;;;3.53;;
10801;SDS011;5453;50.852;7.102;2022-07-29T12:07:27;10.68;;;5.18;;
10801;SDS011;5453;50.852;7.102;2022-07-29T12:10:01;8.90;;;4.78;;
10801;SDS011;5453;50.852;7.102;2022-07-29T12:12:34;5.05;;;2.70;;
10801;SDS011;5453;50.852;7.102;2022-07-29T12:15:12;4.63;;;2.20;;
10801;SDS011;5453;50.852;7.102;2022-07-29T12:17:47;3.05;;;1.80;;
10801;SDS011;5453;50.852;7.102;2022-07-29T12:20:23;3.38;;;1.70;;
10801;SDS011;5453;50.852;7.102;2022-07-29T12:23:03;2.67;;;1.83;;
10801;SDS011;5453;50.852;7.102;2022-07-29T12:25:37;3.42;;;1.88;;
10801;SDS011;5453;50.852;7.102;2022-07-29T12:28:11;3.75;;;1.98;;
10801;SDS011;5453;50.852;7.102;2022-07-29T12:30:48;4.25;;;1.88;;
10801;SDS011;5453;50.852;7.102;2022-07-29T12:33:22;3.15;;;1.50;;
10801;SDS011;5453;50.852;7.102;2022-07-29T12:35:58;3.70;;;1.65;;
10801;SDS011;5453;50.852;7.102;2022-07-29T12:38:34;3.85;;;1.70;;
10801;SDS011;5453;50.852;7.102;2022-07-29T12:41:07;5.97;;;1.77;;
10801;SDS011;5453;50.852;7.102;2022-07-29T12:43:47;2.40;;;1.52;;
10801;SDS011;5453;50.852;7.102;2022-07-29T12:46:24;4.10;;;1.50;;
10801;SDS011;5453;50.852;7.102;2022-07-29T12:48:56;3.92;;;1.50;;
10801;SDS011;5453;50.852;7.102;2022-07-29T12:51:28;5.78;;;1.63;;
10801;SDS011;5453;50.852;7.102;2022-07-29T12:54:04;5.32;;;1.63;;
10801;SDS011;5453;50.852;7.102;2022-07-29T12:56:38;3.75;;;1.75;;
10801;SDS011;5453;50.852;7.102;2022-07-29T12:59:13;2.95;;;1.75;;
10801;SDS011;5453;50.852;7.102;2022-07-29T13:01:47;4.00;;;1.42;;
10801;SDS011;5453;50.852;7.102;2022-07-29T13:04:25;4.25;;;1.85;;
10801;SDS011;5453;50.852;7.102;2022-07-29T13:06:59;3.88;;;1.65;;
10801;SDS011;5453;50.852;7.102;2022-07-29T13:09:37;4.10;;;1.58;;
10801;SDS011;5453;50.852;7.102;2022-07-29T13:12:12;15.85;;;8.48;;
10801;SDS011;5453;50.852;7.102;2022-07-29T13:17:19;5.38;;;2.10;;
10801;SDS011;5453;50.852;7.102;2022-07-29T13:20:03;2.55;;;1.70;;
10801;SDS011;5453;50.852;7.102;2022-07-29T13:22:39;3.05;;;1.63;;
10801;SDS011;5453;50.852;7.102;2022-07-29T13:27:55;2.30;;;1.55;;
10801;SDS011;5453;50.852;7.102;2022-07-29T13:30:27;3.65;;;1.50;;
10801;SDS011;5453;50.852;7.102;2022-07-29T13:32:59;5.18;;;1.50;;
10801;SDS011;5453;50.852;7.102;2022-07-29T13:35:31;2.38;;;1.40;;
10801;SDS011;5453;50.852;7.102;2022-07-29T13:38:04;2.92;;;1.40;;
10801;SDS011;5453;50.852;7.102;2022-07-29T13:40:37;3.08;;;1.38;;
10801;SDS011;5453;50.852;7.102;2022-07-29T13:43:09;4.95;;;1.58;;
10801;SDS011;5453;50.852;7.102;2022-07-29T13:45:41;2.22;;;1.42;;
10801;SDS011;5453;50.852;7.102;2022-07-29T13:48:13;4.53;;;1.70;;
10801;SDS011;5453;50.852;7.102;2022-07-29T13:50:46;2.42;;;1.30;;
10801;SDS011;5453;50.852;7.102;2022-07-29T13:53:18;4.60;;;1.52;;
10801;SDS011;5453;50.852;7.102;2022-07-29T13:55:51;3.17;;;1.60;;
10801;SDS011;5453;50.852;7.102;2022-07-29T13:58:23;3.08;;;1.63;;
10801;SDS011;5453;50.852;7.102;2022-07-29T14:00:55;2.78;;;1.60;;
10801;SDS011;5453;50.852;7.102;2022-07-29T14:03:28;3.33;;;1.88;;
10801;SDS011;5453;50.852;7.102;2022-07-29T14:06:00;2.42;;;1.50;;
10801;SDS011;5453;50.852;7.102;2022-07-29T14:08:32;2.15;;;1.50;;
10801;SDS011;5453;50.852;7.102;2022-07-29T14:11:06;5.18;;;1.73;;
10801;SDS011;5453;50.852;7.102;2022-07-29T14:13:38;2.75;;;1.58;;
10801;SDS011;5453;50.852;7.102;2022-07-29T14:16:10;3.22;;;1.55;;
10801;SDS011;5453;50.852;7.102;2022-07-29T14:18:42;4.60;;;1.52;;
10801;SDS011;5453;50.852;7.102;2022-07-29T14:21:14;3.38;;;1.45;;
10801;SDS011;5453;50.852;7.102;2022-07-29T14:23:46;5.07;;;1.80;;
10801;SDS011;5453;50.852;7.102;2022-07-29T14:26:20;5.22;;;1.70;;
10801;SDS011;5453;50.852;7.102;2022-07-29T14:28:52;3.88;;;1.70;;
10801;SDS011;5453;50.852;7.102;2022-07-29T14:31:24;2.72;;;1.90;;
10801;SDS011;5453;50.852;7.102;2022-07-29T14:33:56;3.72;;;1.60;;
10801;SDS011;5453;50.852;7.102;2022-07-29T14:36:28;2.30;;;1.40;;
10801;SDS011;5453;50.852;7.102;2022-07-29T14:39:00;4.40;;;2.03;;
10801;SDS011;5453;50.852;7.102;2022-07-29T14:41:34;3.13;;;1.75;;
10801;SDS011;5453;50.852;7.102;2022-07-29T14:44:06;4.43;;;1.80;;
10801;SDS011;5453;50.852;7.102;2022-07-29T14:46:39;3.40;;;1.52;;
10801;SDS011;5453;50.852;7.102;2022-07-29T14:49:11;2.88;;;1.70;;
10801;SDS011;5453;50.852;7.102;2022-07-29T14:51:43;2.58;;;1.50;;
10801;SDS011;5453;50.852;7.102;2022-07-29T14:54:15;4.57;;;1.95;;
10801;SDS011;5453;50.852;7.102;2022-07-29T14:56:50;3.50;;;2.10;;
10801;SDS011;5453;50.852;7.102;2022-07-29T14:59:25;3.53;;;1.67;;
10801;SDS011;5453;50.852;7.102;2022-07-29T15:01:57;2.28;;;1.70;;
10801;SDS011;5453;50.852;7.102;2022-07-29T15:04:30;3.92;;;1.70;;
10801;SDS011;5453;50.852;7.102;2022-07-29T15:07:02;3.63;;;1.98;;
10801;SDS011;5453;50.852;7.102;2022-07-29T15:09:34;4.78;;;1.90;;
10801;SDS011;5453;50.852;7.102;2022-07-29T15:12:08;3.67;;;1.80;;
10801;SDS011;5453;50.852;7.102;2022-07-29T15:14:41;3.95;;;2.00;;
10801;SDS011;5453;50.852;7.102;2022-07-29T15:17:13;6.35;;;2.15;;
10801;SDS011;5453;50.852;7.102;2022-07-29T15:19:45;4.60;;;1.67;;
10801;SDS011;5453;50.852;7.102;2022-07-29T15:22:17;3.78;;;1.92;;
10801;SDS011;5453;50.852;7.102;2022-07-29T15:24:49;4.57;;;2.05;;
10801;SDS011;5453;50.852;7.102;2022-07-29T15:27:23;4.32;;;2.15;;
10801;SDS011;5453;50.852;7.102;2022-07-29T15:29:55;4.70;;;2.17;;
10801;SDS011;5453;50.852;7.102;2022-07-29T15:32:27;5.10;;;2.10;;
10801;SDS011;5453;50.852;7.102;2022-07-29T15:35:00;5.20;;;2.20;;
10801;SDS011;5453;50.852;7.102;2022-07-29T15:37:33;2.28;;;1.77;;
10801;SDS011;5453;50.852;7.102;2022-07-29T15:40:05;4.03;;;2.13;;
10801;SDS011;5453;50.852;7.102;2022-07-29T15:42:40;4.43;;;1.85;;
10801;SDS011;5453;50.852;7.102;2022-07-29T15:45:12;5.10;;;1.98;;
10801;SDS011;5453;50.852;7.102;2022-07-29T15:47:44;4.60;;;2.00;;
10801;SDS011;5453;50.852;7.102;2022-07-29T15:50:16;3.58;;;1.55;;
10801;SDS011;5453;50.852;7.102;2022-07-29T15:52:49;2.67;;;1.60;;
10801;SDS011;5453;50.852;7.102;2022-07-29T15:55:21;3.90;;;1.95;;
10801;SDS011;5453;50.852;7.102;2022-07-29T15:57:55;4.47;;;2.15;;
10801;SDS011;5453;50.852;7.102;2022-07-29T16:00:27;4.68;;;2.08;;
10801;SDS011;5453;50.852;7.102;2022-07-29T16:02:59;5.60;;;2.00;;
10801;SDS011;5453;50.852;7.102;2022-07-29T16:05:31;4.60;;;1.83;;
10801;SDS011;5453;50.852;7.102;2022-07-29T16:08:03;3.95;;;1.80;;